Time;durP1;ratioP1;P1;durP2;ratioP2;P2;SDS_P1;SDS_P2;PMS_P1;PMS_P2;Temp;Humidity;BMP_temperature;BMP_pressure;BME280_temperature;BME280_humidity;BME280_pressure;Samples;Min_cycle;Max_cycle;Signal;HPM_P1;HPM_P2
2021/07/22 00:02:07;;;;;;;29.60;16.50;;;25.40;66.90;;;;;;4984763;28;20053;-59
2021/07/22 00:04:32;;;;;;;30.52;16.83;;;25.40;66.90;;;;;;4984528;28;20031;-58
2021/07/22 00:06:58;;;;;;;23.45;15.65;;;25.30;67.00;;;;;;4984323;28;20496;-59
2021/07/22 00:09:23;;;;;;;27.63;16.15;;;25.30;67.00;;;;;;4983414;28;20380;-59
2021/07/22 00:11:49;;;;;;;31.88;17.58;;;25.30;67.10;;;;;;4984679;28;20038;-59
2021/07/22 00:14:15;;;;;;;34.22;16.15;;;25.30;67.20;;;;;;4984890;28;20141;-58
2021/07/22 00:16:40;;;;;;;28.67;15.55;;;25.20;67.20;;;;;;4983457;28;20071;-58
2021/07/22 00:19:06;;;;;;;27.80;16.80;;;25.20;67.30;;;;;;4984035;28;20105;-59
2021/07/22 00:21:31;;;;;;;24.13;15.63;;;25.20;67.40;;;;;;4999146;28;20042;-59
2021/07/22 00:23:58;;;;;;;27.58;15.75;;;25.10;67.40;;;;;;4983301;28;20022;-59
2021/07/22 00:26:23;;;;;;;26.50;15.95;;;25.10;67.50;;;;;;4983835;28;20034;-59
2021/07/22 00:28:49;;;;;;;22.40;14.82;;;25.10;67.60;;;;;;4967890;28;20049;-59
2021/07/22 00:31:14;;;;;;;26.55;15.65;;;25.10;67.70;;;;;;4985599;28;20101;-59
2021/07/22 00:33:40;;;;;;;29.10;17.10;;;25.10;67.80;;;;;;4981347;28;20028;-59
2021/07/22 00:36:07;;;;;;;21.60;15.90;;;25.00;67.80;;;;;;4969685;28;20418;-59
2021/07/22 00:38:32;;;;;;;26.08;15.90;;;25.00;67.80;;;;;;4983622;28;20498;-59
2021/07/22 00:40:59;;;;;;;24.55;15.05;;;25.00;67.90;;;;;;4983549;28;20042;-59
2021/07/22 00:43:26;;;;;;;30.00;16.42;;;24.90;68.00;;;;;;4985394;28;20421;-59
2021/07/22 00:45:51;;;;;;;26.88;16.23;;;24.90;68.00;;;;;;4982451;28;20026;-59
2021/07/22 00:48:17;;;;;;;23.08;16.13;;;24.90;68.10;;;;;;4982199;28;20026;-59
2021/07/22 00:50:42;;;;;;;25.75;15.93;;;24.90;68.20;;;;;;4967942;28;20525;-60
2021/07/22 00:53:08;;;;;;;24.65;15.80;;;24.90;68.20;;;;;;4985694;28;20039;-59
2021/07/22 00:55:33;;;;;;;22.20;16.08;;;24.80;68.20;;;;;;4984444;28;20081;-59
2021/07/22 00:57:59;;;;;;;22.25;16.17;;;24.80;68.30;;;;;;4985424;28;20046;-59
2021/07/22 01:00:24;;;;;;;27.17;16.08;;;24.80;68.40;;;;;;4982241;28;20054;-59
2021/07/22 01:02:50;;;;;;;20.85;14.93;;;24.80;68.40;;;;;;4983727;28;20023;-59
2021/07/22 01:05:16;;;;;;;23.08;15.00;;;24.80;69.20;;;;;;4982701;28;20193;-59
2021/07/22 01:07:41;;;;;;;24.65;14.32;;;24.70;68.50;;;;;;4984795;28;20625;-59
2021/07/22 01:10:07;;;;;;;19.52;15.13;;;24.70;68.60;;;;;;4982968;28;20030;-59
2021/07/22 01:12:33;;;;;;;21.15;14.13;;;24.60;68.60;;;;;;4982977;28;20026;-59
2021/07/22 01:14:58;;;;;;;21.83;14.93;;;24.60;68.70;;;;;;4981985;28;20046;-59
2021/07/22 01:17:36;;;;;;;20.38;14.18;;;24.60;68.80;;;;;;4982977;28;20037;-59
2021/07/22 01:20:02;;;;;;;17.55;14.32;;;24.60;68.90;;;;;;4984518;28;20027;-59
2021/07/22 01:22:29;;;;;;;21.38;14.40;;;24.50;69.00;;;;;;4983145;28;20027;-59
2021/07/22 01:24:55;;;;;;;18.73;14.35;;;24.50;69.00;;;;;;4982578;28;20027;-59
2021/07/22 01:27:20;;;;;;;16.75;14.25;;;24.50;69.90;;;;;;4998325;28;20037;-59
2021/07/22 01:29:46;;;;;;;21.83;15.13;;;24.40;69.20;;;;;;4983038;28;20049;-59
2021/07/22 01:32:11;;;;;;;19.70;15.23;;;24.50;69.30;;;;;;4983367;28;20133;-59
2021/07/22 01:34:37;;;;;;;17.58;15.30;;;24.40;69.30;;;;;;4981551;28;20038;-59
2021/07/22 01:37:02;;;;;;;17.52;14.43;;;24.40;69.40;;;;;;4983475;28;20038;-59
2021/07/22 01:39:29;;;;;;;23.50;15.10;;;24.40;69.60;;;;;;4983463;28;20463;-59
2021/07/22 01:41:54;;;;;;;17.13;14.77;;;24.40;69.60;;;;;;4982503;28;20022;-59
2021/07/22 01:44:20;;;;;;;17.58;14.85;;;24.30;69.70;;;;;;4982318;28;20387;-59
2021/07/22 01:46:45;;;;;;;17.50;15.40;;;24.30;69.80;;;;;;4982789;28;20022;-59
2021/07/22 01:49:11;;;;;;;18.25;15.40;;;24.30;69.80;;;;;;4983212;28;20952;-59
2021/07/22 01:51:37;;;;;;;18.95;14.35;;;24.20;69.90;;;;;;4997462;28;20030;-59
2021/07/22 01:54:03;;;;;;;19.35;14.25;;;24.20;69.90;;;;;;4969153;28;20093;-59
2021/07/22 01:56:28;;;;;;;16.70;14.73;;;24.20;69.90;;;;;;4982305;28;20022;-59
2021/07/22 01:58:54;;;;;;;17.58;15.40;;;24.20;70.00;;;;;;4999027;28;20038;-59
2021/07/22 02:01:19;;;;;;;22.17;14.27;;;24.10;70.00;;;;;;4983572;28;20029;-59
2021/07/22 02:03:45;;;;;;;16.00;14.13;;;24.10;70.00;;;;;;4968149;28;20521;-60
2021/07/22 02:06:12;;;;;;;17.48;15.45;;;24.10;70.20;;;;;;4983430;28;20046;-59
2021/07/22 02:08:37;;;;;;;17.02;14.30;;;24.10;70.20;;;;;;4982803;28;20046;-59
2021/07/22 02:11:03;;;;;;;20.02;14.27;;;24.10;70.30;;;;;;4982114;28;20045;-59
2021/07/22 02:13:29;;;;;;;18.42;14.95;;;24.00;70.30;;;;;;4983084;28;20137;-59
2021/07/22 02:15:54;;;;;;;17.83;15.13;;;24.00;70.40;;;;;;4983715;28;20038;-59
2021/07/22 02:18:20;;;;;;;18.13;14.18;;;24.00;70.60;;;;;;4968810;28;20065;-58
2021/07/22 02:20:46;;;;;;;15.55;14.02;;;23.90;70.60;;;;;;4969428;28;20045;-59
2021/07/22 02:23:11;;;;;;;17.80;14.70;;;23.90;70.70;;;;;;4982161;28;20034;-59
2021/07/22 02:25:37;;;;;;;20.98;14.65;;;23.90;70.80;;;;;;4982329;28;20026;-59
2021/07/22 02:28:03;;;;;;;19.83;13.18;;;23.90;70.90;;;;;;4982647;28;20606;-59
2021/07/22 02:30:28;;;;;;;17.83;14.07;;;23.80;71.00;;;;;;4981333;28;20035;-59
2021/07/22 02:32:54;;;;;;;19.52;13.25;;;23.80;70.90;;;;;;4965298;28;20038;-59
2021/07/22 02:35:19;;;;;;;16.55;13.32;;;23.80;71.00;;;;;;4998041;28;20483;-59
2021/07/22 02:37:46;;;;;;;15.65;13.70;;;23.80;71.10;;;;;;4981523;28;20125;-59
2021/07/22 02:40:12;;;;;;;18.35;13.75;;;23.70;71.10;;;;;;4981652;28;20031;-59
2021/07/22 02:42:37;;;;;;;18.95;14.63;;;23.70;71.30;;;;;;4982109;28;20027;-60
2021/07/22 02:45:05;;;;;;;15.95;14.15;;;23.70;71.30;;;;;;4981171;28;20467;-59
2021/07/22 02:47:30;;;;;;;14.38;12.88;;;23.60;71.30;;;;;;4982300;28;20030;-59
2021/07/22 02:49:56;;;;;;;18.33;13.43;;;23.60;71.30;;;;;;4982187;28;20026;-59
2021/07/22 02:52:21;;;;;;;14.88;13.15;;;23.60;71.40;;;;;;4983722;28;20070;-59
2021/07/22 02:54:47;;;;;;;14.48;12.18;;;23.50;71.50;;;;;;4982501;28;20404;-59
2021/07/22 02:57:12;;;;;;;15.73;13.07;;;23.50;71.60;;;;;;4972941;28;20035;-59
2021/07/22 02:59:38;;;;;;;15.30;12.25;;;23.50;71.70;;;;;;4979593;28;20039;-58
2021/07/22 03:02:03;;;;;;;13.90;12.27;;;23.40;71.70;;;;;;4980539;28;20023;-59
2021/07/22 03:04:30;;;;;;;14.88;13.38;;;23.40;71.80;;;;;;4980439;28;20034;-60
2021/07/22 03:06:56;;;;;;;17.10;12.32;;;23.40;71.90;;;;;;4980460;28;20462;-59
2021/07/22 03:09:22;;;;;;;14.60;12.82;;;23.40;71.90;;;;;;4979606;28;20038;-59
2021/07/22 03:11:47;;;;;;;15.73;12.55;;;23.40;72.00;;;;;;4982049;28;20038;-59
2021/07/22 03:14:13;;;;;;;13.90;12.48;;;23.30;72.10;;;;;;4985971;28;20018;-59
2021/07/22 03:16:38;;;;;;;16.83;13.20;;;23.30;72.20;;;;;;4984494;28;20398;-59
2021/07/22 03:19:04;;;;;;;15.63;13.38;;;23.30;72.40;;;;;;4983592;28;20046;-59
2021/07/22 03:21:30;;;;;;;16.20;12.90;;;23.20;72.40;;;;;;4983463;28;20398;-58
2021/07/22 03:23:55;;;;;;;14.65;12.60;;;23.20;72.40;;;;;;4982642;28;20742;-59
2021/07/22 03:26:21;;;;;;;14.25;12.75;;;23.20;72.70;;;;;;4986505;28;20061;-59
2021/07/22 03:28:47;;;;;;;13.77;12.30;;;23.20;72.60;;;;;;4984945;28;20122;-59
2021/07/22 03:31:12;;;;;;;15.82;12.55;;;23.20;72.70;;;;;;4986037;28;20030;-59
2021/07/22 03:33:37;;;;;;;13.23;11.82;;;23.20;72.60;;;;;;4984814;28;20053;-59
2021/07/22 03:36:04;;;;;;;16.60;12.38;;;23.20;72.60;;;;;;4984159;28;20041;-59
2021/07/22 03:38:29;;;;;;;14.10;12.55;;;23.10;72.50;;;;;;4982704;28;20042;-59
2021/07/22 03:40:55;;;;;;;17.08;12.35;;;23.10;72.60;;;;;;4984402;28;20034;-59
2021/07/22 03:43:20;;;;;;;14.00;12.52;;;23.10;72.80;;;;;;4985176;28;20053;-59
2021/07/22 03:45:46;;;;;;;16.60;12.02;;;23.00;72.80;;;;;;4983369;28;20040;-59
2021/07/22 03:48:12;;;;;;;15.07;12.07;;;23.00;72.80;;;;;;4986118;28;20069;-59
2021/07/22 03:50:38;;;;;;;12.93;11.65;;;23.00;72.80;;;;;;4999028;28;20125;-59
2021/07/22 03:53:04;;;;;;;14.60;12.38;;;23.00;72.80;;;;;;4985250;28;20034;-59
2021/07/22 03:55:30;;;;;;;13.90;12.48;;;23.00;72.90;;;;;;4983636;28;20092;-59
2021/07/22 03:57:56;;;;;;;14.25;12.30;;;22.90;73.00;;;;;;5001312;28;20036;-59
2021/07/22 04:00:22;;;;;;;13.55;12.20;;;22.90;73.00;;;;;;4968150;28;20119;-59
2021/07/22 04:02:47;;;;;;;13.88;12.48;;;22.90;73.10;;;;;;4983514;28;20077;-59
2021/07/22 04:05:13;;;;;;;13.88;12.52;;;22.90;73.10;;;;;;4984757;28;20080;-59
2021/07/22 04:07:38;;;;;;;12.52;11.23;;;22.90;73.30;;;;;;4986385;28;20514;-59
2021/07/22 04:10:04;;;;;;;13.07;11.70;;;22.80;73.30;;;;;;4983954;28;20508;-59
2021/07/22 04:12:30;;;;;;;12.90;11.60;;;22.80;73.40;;;;;;4984311;28;20034;-59
2021/07/22 04:14:55;;;;;;;13.45;12.05;;;22.80;73.50;;;;;;4999512;28;20057;-59
2021/07/22 04:17:21;;;;;;;14.13;11.98;;;22.70;73.50;;;;;;4983827;28;20153;-59
2021/07/22 04:19:47;;;;;;;13.77;12.25;;;22.80;73.60;;;;;;5000567;28;20033;-59
2021/07/22 04:22:13;;;;;;;15.50;12.02;;;22.70;73.70;;;;;;4983911;28;20038;-59
2021/07/22 04:24:38;;;;;;;14.23;11.45;;;22.70;73.80;;;;;;4984634;28;20132;-59
2021/07/22 04:27:06;;;;;;;12.65;11.30;;;22.70;74.00;;;;;;4985432;28;20495;-59
2021/07/22 04:29:32;;;;;;;13.63;12.15;;;22.60;74.00;;;;;;4985157;28;20042;-59
2021/07/22 04:31:57;;;;;;;13.98;12.48;;;22.60;74.00;;;;;;4984582;28;20054;-59
2021/07/22 04:34:23;;;;;;;12.90;11.50;;;22.60;74.10;;;;;;4983705;28;20084;-59
2021/07/22 04:36:48;;;;;;;12.65;11.38;;;22.60;74.10;;;;;;4984407;28;20123;-59
2021/07/22 04:39:14;;;;;;;14.88;11.30;;;22.60;74.20;;;;;;4982092;28;20050;-59
2021/07/22 04:41:39;;;;;;;13.85;11.43;;;22.60;74.30;;;;;;4983501;28;20038;-59
2021/07/22 04:44:05;;;;;;;12.57;11.23;;;22.50;74.20;;;;;;4984190;28;20050;-59
2021/07/22 04:46:30;;;;;;;13.68;11.95;;;22.50;74.30;;;;;;4984829;28;20108;-59
2021/07/22 04:48:56;;;;;;;13.07;11.80;;;22.50;74.90;;;;;;4985371;28;20117;-59
2021/07/22 04:51:22;;;;;;;14.35;11.80;;;22.50;74.30;;;;;;4970865;28;20062;-59
2021/07/22 04:53:47;;;;;;;14.50;12.20;;;22.50;74.40;;;;;;4983727;28;20065;-60
2021/07/22 04:56:13;;;;;;;17.98;12.10;;;22.50;74.40;;;;;;4983701;28;20113;-59
2021/07/22 04:58:38;;;;;;;15.35;11.40;;;22.50;74.40;;;;;;4984835;28;20056;-60
2021/07/22 05:01:05;;;;;;;12.15;10.90;;;22.40;74.50;;;;;;4985127;28;20040;-59
2021/07/22 05:03:31;;;;;;;13.23;11.90;;;22.50;74.60;;;;;;4974885;28;20481;-59
2021/07/22 05:05:56;;;;;;;12.73;11.20;;;22.40;74.60;;;;;;4998027;28;20127;-59
2021/07/22 05:08:22;;;;;;;15.43;11.07;;;22.40;74.70;;;;;;4983835;28;20058;-59
2021/07/22 05:10:47;;;;;;;12.35;11.05;;;22.40;74.70;;;;;;4983859;28;20482;-59
2021/07/22 05:13:14;;;;;;;14.98;11.30;;;22.40;74.60;;;;;;4985209;28;20026;-59
2021/07/22 05:15:40;;;;;;;12.55;11.27;;;22.40;74.70;;;;;;4984335;28;20458;-59
2021/07/22 05:18:05;;;;;;;11.98;10.77;;;22.40;74.80;;;;;;4982780;28;20103;-59
2021/07/22 05:20:31;;;;;;;14.20;11.20;;;22.40;74.90;;;;;;4984353;28;20176;-59
2021/07/22 05:23:00;;;;;;;13.30;11.25;;;22.40;74.90;;;;;;4983465;28;20022;-59
2021/07/22 05:25:25;;;;;;;14.93;12.13;;;22.40;74.90;;;;;;4983171;28;20025;-59
2021/07/22 05:27:51;;;;;;;14.05;11.38;;;22.30;74.80;;;;;;4983661;28;20026;-59
2021/07/22 05:30:16;;;;;;;13.35;11.30;;;22.30;74.80;;;;;;4998688;28;20371;-59
2021/07/22 05:32:42;;;;;;;14.60;11.70;;;22.30;75.50;;;;;;4981703;28;20470;-59
2021/07/22 05:35:08;;;;;;;12.52;11.23;;;22.30;74.90;;;;;;4982789;28;20050;-59
2021/07/22 05:37:34;;;;;;;12.93;11.60;;;22.30;75.00;;;;;;4974391;28;20041;-59
2021/07/22 05:39:59;;;;;;;17.67;12.02;;;22.30;75.10;;;;;;4981002;28;20022;-58
2021/07/22 05:42:25;;;;;;;14.95;11.60;;;22.20;75.10;;;;;;4981901;28;20100;-59
2021/07/22 05:44:51;;;;;;;14.15;11.45;;;22.20;75.00;;;;;;4981145;28;20197;-59
2021/07/22 05:47:16;;;;;;;14.77;11.45;;;22.20;75.20;;;;;;4981084;28;20096;-59
2021/07/22 05:49:42;;;;;;;16.70;11.75;;;22.20;75.10;;;;;;4980204;28;20430;-59
2021/07/22 05:52:07;;;;;;;15.45;11.80;;;22.20;75.10;;;;;;4982846;28;20038;-59
2021/07/22 05:54:33;;;;;;;14.93;11.60;;;22.20;75.00;;;;;;4966311;28;20034;-60
2021/07/22 05:56:58;;;;;;;13.90;11.23;;;22.20;75.10;;;;;;4981625;28;20026;-59
2021/07/22 05:59:24;;;;;;;13.32;10.95;;;22.20;75.00;;;;;;4981698;28;20401;-59
2021/07/22 06:01:49;;;;;;;12.50;11.23;;;22.20;75.10;;;;;;4982533;28;20200;-58
2021/07/22 06:04:15;;;;;;;14.52;11.63;;;22.20;75.10;;;;;;4983608;28;20034;-59
2021/07/22 06:06:43;;;;;;;12.70;10.70;;;22.20;75.20;;;;;;4982910;28;20331;-59
2021/07/22 06:09:09;;;;;;;14.82;12.00;;;22.20;75.20;;;;;;4980458;28;20018;-59
2021/07/22 06:11:34;;;;;;;13.07;11.75;;;22.20;75.20;;;;;;4981723;28;20054;-59
2021/07/22 06:14:00;;;;;;;13.93;11.35;;;22.20;75.20;;;;;;4980855;28;20036;-59
2021/07/22 06:16:27;;;;;;;16.48;11.05;;;22.20;75.20;;;;;;4981566;28;20026;-59
2021/07/22 06:18:53;;;;;;;15.20;11.50;;;22.20;75.20;;;;;;4982791;28;20031;-59
2021/07/22 06:21:18;;;;;;;13.25;11.82;;;22.20;75.30;;;;;;4981936;28;20038;-59
2021/07/22 06:23:44;;;;;;;14.30;11.13;;;22.20;75.20;;;;;;4980009;28;20051;-59
2021/07/22 06:26:09;;;;;;;15.48;12.23;;;22.20;75.20;;;;;;4979311;28;20026;-59
2021/07/22 06:28:35;;;;;;;18.63;11.95;;;22.20;75.20;;;;;;4994405;28;20038;-59
2021/07/22 06:31:00;;;;;;;12.73;11.43;;;22.20;75.20;;;;;;4979840;28;20027;-59
2021/07/22 06:33:26;;;;;;;17.25;12.23;;;22.20;75.20;;;;;;4981743;28;20049;-59
2021/07/22 06:35:52;;;;;;;21.27;12.02;;;22.20;75.20;;;;;;4977714;28;20022;-59
2021/07/22 06:38:17;;;;;;;18.30;11.27;;;22.20;75.20;;;;;;4978213;28;20386;-59
2021/07/22 06:40:43;;;;;;;13.63;10.48;;;22.20;75.20;;;;;;4978666;28;20398;-59
2021/07/22 06:43:09;;;;;;;24.83;12.43;;;22.20;75.10;;;;;;4980601;28;20403;-59
2021/07/22 06:45:35;;;;;;;21.65;12.75;;;22.20;75.00;;;;;;4983548;28;20026;-59
2021/07/22 06:48:02;;;;;;;24.48;12.13;;;22.20;75.00;;;;;;4987044;28;20023;-58
2021/07/22 06:50:27;;;;;;;18.92;12.15;;;22.20;74.90;;;;;;4983844;28;20475;-59
2021/07/22 06:52:53;;;;;;;24.52;12.27;;;22.30;75.00;;;;;;4985022;28;20053;-58
2021/07/22 06:55:18;;;;;;;19.90;12.55;;;22.30;74.90;;;;;;4985526;28;20093;-59
2021/07/22 06:57:44;;;;;;;26.05;12.15;;;22.30;74.90;;;;;;4999120;28;20122;-58
2021/07/22 07:00:10;;;;;;;21.88;12.25;;;22.30;74.70;;;;;;4985530;28;20161;-59
2021/07/22 07:02:36;;;;;;;30.40;13.30;;;22.30;74.70;;;;;;4984991;28;20121;-59
2021/07/22 07:05:01;;;;;;;40.00;14.20;;;22.30;74.90;;;;;;4985122;28;20117;-58
2021/07/22 07:07:27;;;;;;;31.38;13.48;;;22.30;75.30;;;;;;4985969;28;20106;-62
2021/07/22 07:09:53;;;;;;;26.00;12.65;;;22.30;75.80;;;;;;4985915;28;20049;-59
2021/07/22 07:12:18;;;;;;;24.60;12.52;;;22.20;75.90;;;;;;4984934;28;20120;-59
2021/07/22 07:14:44;;;;;;;28.85;13.75;;;22.20;76.10;;;;;;4984872;28;20137;-59
2021/07/22 07:17:09;;;;;;;35.10;13.52;;;22.20;76.20;;;;;;4979432;28;20050;-59
2021/07/22 07:19:35;;;;;;;24.85;12.68;;;22.20;76.30;;;;;;4983064;28;20026;-59
2021/07/22 07:22:01;;;;;;;40.97;14.88;;;22.10;76.30;;;;;;4985591;28;20044;-59
2021/07/22 07:24:26;;;;;;;38.30;13.45;;;22.20;77.10;;;;;;4985816;28;20390;-59
2021/07/22 07:26:52;;;;;;;38.63;13.38;;;22.10;76.30;;;;;;4983098;28;20283;-59
2021/07/22 07:29:17;;;;;;;36.13;13.95;;;22.10;76.30;;;;;;4984237;28;20127;-59
2021/07/22 07:31:43;;;;;;;34.42;13.80;;;22.10;76.50;;;;;;4968031;28;20034;-60
2021/07/22 07:34:08;;;;;;;45.95;16.90;;;22.10;76.50;;;;;;4984028;28;20030;-59
2021/07/22 07:36:34;;;;;;;42.90;14.50;;;22.10;76.40;;;;;;4999712;28;20062;-58
2021/07/22 07:38:59;;;;;;;37.88;14.90;;;22.10;76.40;;;;;;4983820;28;21560;-59
2021/07/22 07:41:25;;;;;;;35.80;13.30;;;22.10;76.50;;;;;;4982238;28;20029;-59
2021/07/22 07:43:50;;;;;;;35.42;14.27;;;22.20;76.50;;;;;;4982060;28;20060;-58
2021/07/22 07:46:16;;;;;;;40.33;13.80;;;22.10;76.50;;;;;;4980873;28;20521;-59
2021/07/22 07:48:41;;;;;;;27.63;14.15;;;22.10;76.50;;;;;;4984640;28;20114;-59
2021/07/22 07:51:09;;;;;;;33.38;13.57;;;22.20;76.50;;;;;;4984624;28;20454;-58
2021/07/22 07:53:35;;;;;;;54.70;15.52;;;22.20;76.80;;;;;;4983389;28;20434;-59
2021/07/22 07:56:00;;;;;;;38.72;14.80;;;22.20;76.90;;;;;;4980357;28;20750;-59
2021/07/22 07:58:26;;;;;;;38.22;14.52;;;22.20;76.80;;;;;;4968026;28;20034;-59
2021/07/22 08:00:51;;;;;;;51.40;14.77;;;22.20;76.80;;;;;;4979438;28;20069;-59
2021/07/22 08:03:18;;;;;;;47.70;15.43;;;22.20;76.80;;;;;;4983648;28;20031;-59
2021/07/22 08:05:44;;;;;;;35.97;14.93;;;22.20;76.80;;;;;;4981046;28;20304;-59
2021/07/22 08:08:09;;;;;;;31.48;14.02;;;22.20;77.10;;;;;;4982485;28;20034;-59
2021/07/22 08:10:35;;;;;;;36.25;14.88;;;22.30;76.80;;;;;;4980909;28;20037;-58
2021/07/22 08:13:06;;;;;;;37.38;14.98;;;22.30;76.90;;;;;;4983866;28;20034;-59
2021/07/22 08:15:31;;;;;;;42.28;15.10;;;22.30;77.00;;;;;;4964832;28;20030;-59
2021/07/22 08:17:57;;;;;;;48.65;16.10;;;22.30;76.80;;;;;;4982214;28;20042;-59
2021/07/22 08:20:22;;;;;;;39.80;16.25;;;22.30;77.10;;;;;;4982223;28;20027;-60
2021/07/22 08:22:48;;;;;;;36.08;15.20;;;22.40;77.30;;;;;;4982141;28;20042;-59
2021/07/22 08:25:13;;;;;;;37.72;15.43;;;22.30;77.10;;;;;;4983314;28;20074;-59
2021/07/22 08:27:39;;;;;;;45.03;14.10;;;22.30;77.40;;;;;;4984460;28;20050;-59
2021/07/22 08:30:05;;;;;;;49.35;14.93;;;22.40;77.40;;;;;;4982551;28;20110;-59
2021/07/22 08:32:31;;;;;;;46.15;15.20;;;22.40;77.80;;;;;;4983014;28;20030;-59
2021/07/22 08:34:56;;;;;;;45.28;16.75;;;22.40;77.90;;;;;;4982310;28;20827;-59
2021/07/22 08:37:22;;;;;;;56.40;16.55;;;22.40;78.10;;;;;;4977332;28;20042;-59
2021/07/22 08:39:50;;;;;;;52.95;16.98;;;22.40;78.10;;;;;;4984225;28;20651;-59
2021/07/22 08:42:16;;;;;;;49.40;17.55;;;22.40;78.00;;;;;;4984601;28;20327;-58
2021/07/22 08:44:42;;;;;;;59.33;17.13;;;22.50;78.10;;;;;;4982256;28;20041;-59
2021/07/22 08:47:08;;;;;;;122.15;22.95;;;22.50;78.20;;;;;;4981434;28;20057;-59
2021/07/22 08:49:34;;;;;;;52.00;17.90;;;22.50;78.00;;;;;;4979069;28;20142;-59
2021/07/22 08:52:00;;;;;;;53.38;17.85;;;22.50;78.10;;;;;;4981685;28;20430;-59
2021/07/22 08:54:26;;;;;;;52.63;15.77;;;22.50;78.10;;;;;;4981783;28;20058;-59
2021/07/22 08:56:54;;;;;;;46.55;16.00;;;22.60;78.30;;;;;;4982777;28;20034;-59
2021/07/22 08:59:19;;;;;;;57.25;17.33;;;22.60;78.10;;;;;;4964109;28;20040;-58
2021/07/22 09:01:45;;;;;;;60.35;17.35;;;22.60;78.20;;;;;;4979770;28;20054;-59
2021/07/22 09:04:10;;;;;;;46.88;17.48;;;22.60;78.10;;;;;;4980300;28;20027;-59
2021/07/22 09:06:36;;;;;;;50.42;16.73;;;22.60;78.00;;;;;;4981088;28;20063;-58
2021/07/22 09:09:12;;;;;;;45.63;17.33;;;22.60;77.90;;;;;;4980632;28;20036;-59
2021/07/22 09:11:59;;;;;;;52.38;16.15;;;22.70;77.80;;;;;;4981228;28;20026;-59
2021/07/22 09:14:29;;;;;;;49.17;18.10;;;22.80;77.90;;;;;;4980560;28;20175;-59
2021/07/22 09:16:55;;;;;;;61.75;17.35;;;22.80;78.00;;;;;;4977006;28;20084;-59
2021/07/22 09:19:33;;;;;;;58.80;18.40;;;22.80;77.60;;;;;;4981122;28;20027;-62
2021/07/22 09:21:59;;;;;;;48.22;16.55;;;22.90;77.60;;;;;;4965541;28;20036;-58
2021/07/22 09:24:24;;;;;;;60.28;18.55;;;22.80;77.70;;;;;;4980377;28;20030;-59
2021/07/22 09:26:54;;;;;;;225.55;35.40;;;22.90;77.70;;;;;;4980631;28;20026;-60
2021/07/22 09:29:20;;;;;;;59.38;18.60;;;22.90;77.70;;;;;;4978009;28;20062;-59
2021/07/22 09:31:46;;;;;;;77.63;19.15;;;23.00;77.50;;;;;;4980803;28;20080;-59
2021/07/22 09:34:16;;;;;;;71.78;18.92;;;23.00;77.40;;;;;;4980728;28;20027;-60
2021/07/22 09:36:41;;;;;;;54.25;17.48;;;23.00;77.40;;;;;;4982434;28;20034;-59
2021/07/22 09:39:28;;;;;;;59.17;18.48;;;23.00;77.10;;;;;;4976535;28;20046;-59
2021/07/22 09:42:00;;;;;;;53.05;19.77;;;23.10;77.10;;;;;;4978866;28;20034;-59
2021/07/22 09:44:37;;;;;;;55.58;18.80;;;23.10;77.00;;;;;;4977563;28;20565;-59
2021/07/22 09:47:06;;;;;;;50.13;18.20;;;23.20;76.90;;;;;;4963924;28;20046;-59
2021/07/22 09:49:39;;;;;;;58.00;18.05;;;23.20;77.00;;;;;;4980569;28;20643;-60
2021/07/22 09:52:17;;;;;;;60.88;18.60;;;23.30;76.80;;;;;;4979334;28;20030;-59
2021/07/22 09:54:42;;;;;;;45.17;17.48;;;23.30;76.60;;;;;;4978592;28;20046;-62
2021/07/22 09:57:16;;;;;;;42.35;18.15;;;23.30;76.60;;;;;;4979444;28;20034;-58
2021/07/22 09:59:43;;;;;;;53.05;17.88;;;23.30;76.50;;;;;;4980546;28;20038;-60
2021/07/22 10:02:21;;;;;;;41.53;17.58;;;23.30;76.40;;;;;;4981100;28;20109;-60
2021/07/22 10:04:52;;;;;;;50.95;18.65;;;23.40;76.50;;;;;;4976993;28;20015;-59
2021/07/22 10:07:20;;;;;;;45.70;16.98;;;23.40;76.20;;;;;;4980488;28;20041;-59
2021/07/22 10:09:46;;;;;;;46.72;18.10;;;23.50;76.20;;;;;;4978610;28;20021;-63
2021/07/22 10:12:11;;;;;;;62.70;17.85;;;23.50;75.90;;;;;;4979131;28;20030;-60
2021/07/22 10:14:37;;;;;;;50.42;17.17;;;23.60;75.90;;;;;;4980479;28;20344;-62
2021/07/22 10:17:03;;;;;;;58.90;18.35;;;23.60;75.50;;;;;;4979397;28;20475;-59
2021/07/22 10:19:28;;;;;;;56.72;18.17;;;23.70;75.40;;;;;;4977602;28;20106;-62
2021/07/22 10:21:55;;;;;;;64.88;18.27;;;23.70;75.50;;;;;;4981111;28;20182;-59
2021/07/22 10:24:21;;;;;;;54.58;17.30;;;23.80;75.10;;;;;;4983608;28;20026;-59
2021/07/22 10:26:47;;;;;;;48.08;18.23;;;23.80;75.20;;;;;;4982990;28;20058;-59
2021/07/22 10:29:12;;;;;;;77.45;20.10;;;23.90;74.90;;;;;;4982190;28;20165;-60
2021/07/22 10:31:42;;;;;;;48.88;17.73;;;23.90;74.70;;;;;;4980164;28;20041;-62
2021/07/22 10:34:09;;;;;;;66.72;19.55;;;23.90;74.40;;;;;;4983012;28;20038;-60
2021/07/22 10:36:36;;;;;;;57.20;18.38;;;24.00;74.50;;;;;;4983896;28;20026;-59
2021/07/22 10:39:02;;;;;;;65.18;17.65;;;24.00;74.30;;;;;;4981305;28;20034;-61
2021/07/22 10:41:38;;;;;;;57.08;19.48;;;24.00;74.20;;;;;;4982281;28;20573;-59
2021/07/22 10:44:23;;;;;;;44.88;17.60;;;24.10;74.30;;;;;;4982344;28;20038;-59
2021/07/22 10:46:54;;;;;;;51.92;18.77;;;24.10;74.00;;;;;;4977820;28;20043;-60
2021/07/22 10:49:20;;;;;;;49.15;17.40;;;24.20;73.80;;;;;;4982733;28;20139;-59
2021/07/22 10:51:46;;;;;;;46.30;18.05;;;24.30;73.90;;;;;;4982365;28;20113;-59
2021/07/22 10:54:44;;;;;;;46.15;17.15;;;24.30;73.60;;;;;;4985598;28;20058;-60
2021/07/22 10:57:36;;;;;;;56.47;16.80;;;24.40;73.40;;;;;;4981644;28;20034;-60
2021/07/22 11:00:04;;;;;;;48.53;17.88;;;24.40;73.20;;;;;;4982361;28;20732;-60
2021/07/22 11:02:43;;;;;;;44.58;18.70;;;24.50;72.90;;;;;;4979692;28;20121;-60
2021/07/22 11:05:32;;;;;;;40.58;17.50;;;24.50;72.90;;;;;;4998349;28;21333;-59
2021/07/22 11:08:31;;;;;;;44.00;18.40;;;24.50;73.40;;;;;;4973520;28;20136;-59
2021/07/22 11:11:03;;;;;;;70.03;19.42;;;24.70;72.40;;;;;;4955454;28;20042;-59
2021/07/22 11:13:35;;;;;;;63.95;18.85;;;24.70;72.20;;;;;;4982548;28;20057;-60
2021/07/22 11:16:04;;;;;;;65.65;20.40;;;24.90;72.10;;;;;;4984607;28;20512;-59
2021/07/22 11:18:48;;;;;;;94.45;21.70;;;24.90;71.90;;;;;;4985792;28;20035;-60
2021/07/22 11:21:34;;;;;;;86.20;19.88;;;25.00;71.70;;;;;;4982714;28;20465;-60
2021/07/22 11:24:01;;;;;;;60.80;19.20;;;25.10;71.20;;;;;;4980823;28;20854;-59
2021/07/22 11:26:31;;;;;;;80.13;19.85;;;25.20;70.90;;;;;;4979284;28;20061;-60
2021/07/22 11:28:57;;;;;;;99.43;21.00;;;25.20;70.50;;;;;;4983781;28;20073;-60
2021/07/22 11:31:23;;;;;;;76.57;20.23;;;25.30;70.40;;;;;;4982759;28;20398;-60
2021/07/22 11:33:48;;;;;;;83.15;20.70;;;25.40;70.00;;;;;;4984535;28;21414;-60
2021/07/22 11:36:22;;;;;;;87.05;19.45;;;25.60;69.70;;;;;;4982034;28;20042;-60
2021/07/22 11:38:50;;;;;;;75.32;19.33;;;25.60;69.40;;;;;;4979977;28;20118;-59
2021/07/22 11:41:15;;;;;;;78.38;19.00;;;25.80;69.10;;;;;;4982183;28;20636;-60
2021/07/22 11:43:45;;;;;;;76.95;19.63;;;25.80;68.70;;;;;;4982582;28;20069;-59
2021/07/22 11:46:21;;;;;;;79.70;20.13;;;25.90;68.40;;;;;;4981570;28;20049;-59
2021/07/22 11:48:47;;;;;;;94.00;22.15;;;25.90;68.00;;;;;;4982715;28;20038;-59
2021/07/22 11:51:13;;;;;;;101.20;21.13;;;26.10;67.60;;;;;;4982964;28;20033;-59
2021/07/22 11:53:39;;;;;;;60.30;19.20;;;26.10;67.30;;;;;;4981451;28;20119;-59
2021/07/22 11:56:18;;;;;;;72.57;20.27;;;26.20;67.20;;;;;;4991727;28;20109;-59
2021/07/22 11:58:50;;;;;;;109.43;21.83;;;26.30;67.40;;;;;;4982329;28;20081;-59
2021/07/22 12:01:15;;;;;;;71.55;18.88;;;26.40;66.40;;;;;;4984256;28;20605;-59
2021/07/22 12:03:44;;;;;;;74.47;20.60;;;26.40;66.30;;;;;;4981866;28;20125;-59
2021/07/22 12:06:10;;;;;;;75.00;19.35;;;26.40;66.20;;;;;;4966931;28;20585;-60
2021/07/22 12:08:35;;;;;;;66.35;19.38;;;26.50;66.10;;;;;;4981343;28;20121;-59
2021/07/22 12:11:03;;;;;;;76.32;18.58;;;26.60;65.90;;;;;;4983264;28;20038;-59
2021/07/22 12:13:51;;;;;;;59.17;18.88;;;26.70;65.90;;;;;;4982824;28;20034;-59
2021/07/22 12:16:21;;;;;;;79.53;18.85;;;26.80;65.90;;;;;;4980796;28;20035;-60
2021/07/22 12:18:53;;;;;;;100.45;20.85;;;26.80;65.80;;;;;;4980509;28;20050;-59
2021/07/22 12:21:23;;;;;;;84.35;20.35;;;26.90;65.60;;;;;;4980470;28;20033;-60
2021/07/22 12:23:49;;;;;;;89.15;19.95;;;27.00;64.80;;;;;;4983688;28;20030;-59
2021/07/22 12:26:16;;;;;;;64.97;18.45;;;27.00;64.80;;;;;;4983981;28;20094;-59